createdAt,value
2019-03-10T00:00:13.370Z,5.40
2019-03-10T00:02:41.819Z,5.40
2019-03-10T00:05:10.322Z,5.30
2019-03-10T00:07:38.890Z,5.40
2019-03-10T00:10:10.165Z,5.30
2019-03-10T00:12:38.596Z,5.30
2019-03-10T00:15:11.760Z,5.30
2019-03-10T00:17:40.176Z,5.30
2019-03-10T00:20:10.389Z,5.30
2019-03-10T00:22:38.951Z,5.30
2019-03-10T00:25:10.857Z,5.30
2019-03-10T00:27:39.358Z,5.30
2019-03-10T00:30:10.514Z,5.30
2019-03-10T00:32:39.014Z,5.50
2019-03-10T00:35:07.794Z,5.50
2019-03-10T00:37:36.396Z,5.40
2019-03-10T00:40:19.765Z,5.50
2019-03-10T00:43:05.945Z,5.50
2019-03-10T00:46:06.047Z,5.50
2019-03-10T00:49:10.584Z,5.60
2019-03-10T00:51:58.537Z,5.60
2019-03-10T00:54:27.047Z,5.60
2019-03-10T00:56:55.477Z,5.60
2019-03-10T00:59:23.931Z,5.60
2019-03-10T01:01:52.378Z,5.60
2019-03-10T01:04:20.834Z,5.70
2019-03-10T01:06:49.364Z,5.80
2019-03-10T01:09:17.825Z,5.70
2019-03-10T01:11:46.803Z,5.60
2019-03-10T01:14:15.273Z,5.60
2019-03-10T01:16:44.016Z,5.80
2019-03-10T01:19:12.542Z,5.70
2019-03-10T01:21:41.112Z,5.80
2019-03-10T01:24:09.556Z,5.70
2019-03-10T01:26:37.990Z,5.70
2019-03-10T01:29:06.442Z,5.80
2019-03-10T01:31:46.910Z,5.90
2019-03-10T01:34:36.490Z,5.90
2019-03-10T01:37:04.928Z,5.90
2019-03-10T01:39:33.382Z,5.90
2019-03-10T01:42:01.816Z,5.90
2019-03-10T01:44:30.546Z,5.90
2019-03-10T01:47:00.126Z,6.00
2019-03-10T01:49:28.582Z,6.00
2019-03-10T01:51:57.114Z,6.00
2019-03-10T01:54:25.640Z,6.00
2019-03-10T01:56:54.206Z,6.00
2019-03-10T01:59:22.656Z,6.00
2019-03-10T02:01:51.098Z,6.10
2019-03-10T02:04:19.566Z,6.10
2019-03-10T02:06:48.089Z,6.20
2019-03-10T02:09:16.604Z,6.20
2019-03-10T02:11:45.038Z,6.20
2019-03-10T02:14:13.966Z,6.30
2019-03-10T02:16:42.491Z,6.30
2019-03-10T02:19:11.004Z,6.40
2019-03-10T02:21:39.526Z,6.40
2019-03-10T02:24:07.958Z,6.40
2019-03-10T02:26:36.407Z,6.40
2019-03-10T02:29:04.843Z,6.50
2019-03-10T02:31:33.373Z,6.50
2019-03-10T02:34:01.800Z,6.50
2019-03-10T02:36:30.270Z,6.50
2019-03-10T02:38:58.707Z,6.50
2019-03-10T02:41:27.149Z,6.60
2019-03-10T02:43:55.587Z,6.60
2019-03-10T02:46:24.050Z,6.60
2019-03-10T02:48:52.486Z,6.60
2019-03-10T02:51:20.963Z,6.70
2019-03-10T02:53:49.404Z,6.70
2019-03-10T02:56:17.875Z,6.70
2019-03-10T02:58:46.310Z,6.80
2019-03-10T03:01:14.781Z,6.80
2019-03-10T03:03:43.287Z,6.90
2019-03-10T03:06:11.759Z,6.80
2019-03-10T03:08:40.187Z,6.80
2019-03-10T03:11:08.628Z,6.90
2019-03-10T03:13:37.066Z,6.80
2019-03-10T03:16:05.526Z,6.80
2019-03-10T03:18:34.021Z,6.80
2019-03-10T03:21:02.496Z,6.80
2019-03-10T03:23:30.984Z,6.80
2019-03-10T03:25:59.585Z,6.70
2019-03-10T03:28:28.010Z,6.70
2019-03-10T03:30:56.464Z,6.70
2019-03-10T03:33:24.905Z,6.80
2019-03-10T03:35:58.526Z,6.70
2019-03-10T03:38:30.051Z,6.70
2019-03-10T03:41:10.546Z,6.70
2019-03-10T03:43:38.970Z,6.80
2019-03-10T03:46:07.423Z,6.80
2019-03-10T03:48:35.872Z,6.70
2019-03-10T03:51:04.345Z,6.90
2019-03-10T03:53:32.822Z,6.80
2019-03-10T03:56:01.250Z,6.70
2019-03-10T03:58:29.715Z,6.80
2019-03-10T04:01:05.655Z,6.80
2019-03-10T04:03:34.178Z,6.70
2019-03-10T04:06:02.610Z,6.80
2019-03-10T04:08:31.115Z,6.80
2019-03-10T04:10:59.555Z,6.80
2019-03-10T04:13:28.087Z,6.80
2019-03-10T04:15:56.591Z,6.80
2019-03-10T04:18:25.042Z,6.70
2019-03-10T04:20:53.480Z,6.70
2019-03-10T04:23:21.936Z,6.70
2019-03-10T04:25:50.554Z,6.70
2019-03-10T04:28:18.991Z,6.80
2019-03-10T04:30:47.433Z,6.70
2019-03-10T04:33:15.888Z,6.70
2019-03-10T04:35:44.335Z,6.70
2019-03-10T04:38:12.778Z,6.80
2019-03-10T04:40:41.207Z,6.80
2019-03-10T04:43:09.653Z,6.80
2019-03-10T04:45:38.081Z,6.80
2019-03-10T04:48:06.521Z,6.70
2019-03-10T04:50:34.950Z,6.80
2019-03-10T04:53:03.417Z,6.90
2019-03-10T04:55:33.559Z,6.80
2019-03-10T04:58:06.440Z,6.90
2019-03-10T05:00:36.515Z,6.90
2019-03-10T05:03:05.036Z,7.00
2019-03-10T05:05:33.537Z,7.00
2019-03-10T05:08:02.007Z,7.00
2019-03-10T05:10:30.453Z,7.00
2019-03-10T05:12:59.303Z,7.00
2019-03-10T05:15:27.774Z,7.10
2019-03-10T05:17:56.197Z,7.10
2019-03-10T05:20:24.734Z,7.10
2019-03-10T05:22:56.234Z,7.10
2019-03-10T05:25:24.685Z,7.00
2019-03-10T05:27:53.117Z,7.00
2019-03-10T05:30:21.578Z,7.00
2019-03-10T05:32:50.022Z,7.00
2019-03-10T05:35:18.494Z,7.00
2019-03-10T05:37:47.009Z,7.10
2019-03-10T05:40:15.454Z,7.00
2019-03-10T05:42:43.883Z,7.10
2019-03-10T05:45:12.332Z,7.10
2019-03-10T05:47:40.858Z,7.10
2019-03-10T05:50:09.514Z,7.10
2019-03-10T05:52:37.958Z,7.10
2019-03-10T05:55:06.546Z,7.10
2019-03-10T05:57:34.989Z,7.10
2019-03-10T06:00:04.812Z,7.10
2019-03-10T06:02:33.331Z,7.10
2019-03-10T06:05:01.814Z,7.10
2019-03-10T06:07:30.252Z,7.20
2019-03-10T06:09:58.698Z,7.20
2019-03-10T06:12:27.140Z,7.20
2019-03-10T06:14:55.594Z,7.20
2019-03-10T06:17:24.127Z,7.20
2019-03-10T06:19:52.545Z,7.20
2019-03-10T06:22:20.999Z,7.20
2019-03-10T06:24:49.427Z,7.20
2019-03-10T06:27:17.895Z,7.30
2019-03-10T06:29:46.431Z,7.30
2019-03-10T06:32:14.873Z,7.20
2019-03-10T06:34:43.301Z,7.20
2019-03-10T06:37:11.961Z,7.20
2019-03-10T06:39:40.404Z,7.20
2019-03-10T06:42:08.836Z,7.20
2019-03-10T06:44:37.286Z,7.20
2019-03-10T06:47:05.877Z,7.30
2019-03-10T06:49:34.329Z,7.30
2019-03-10T06:52:02.767Z,7.30
2019-03-10T06:54:31.240Z,7.30
2019-03-10T06:56:59.675Z,7.30
2019-03-10T06:59:28.119Z,7.30
2019-03-10T07:01:56.789Z,7.40
2019-03-10T07:04:25.245Z,7.30
2019-03-10T07:06:53.697Z,7.40
2019-03-10T07:09:23.676Z,7.30
2019-03-10T07:11:52.152Z,7.30
2019-03-10T07:14:20.578Z,7.40
2019-03-10T07:16:49.217Z,7.30
2019-03-10T07:19:17.738Z,7.20
2019-03-10T07:21:46.186Z,7.10
2019-03-10T07:24:14.710Z,7.00
2019-03-10T07:26:43.220Z,7.00
2019-03-10T07:29:28.123Z,6.90
2019-03-10T07:31:58.217Z,6.90
2019-03-10T07:34:36.859Z,6.90
2019-03-10T07:37:09.640Z,7.00
2019-03-10T07:39:51.232Z,6.90
2019-03-10T07:42:27.375Z,6.80
2019-03-10T07:45:13.558Z,6.90
2019-03-10T07:47:43.643Z,6.80
2019-03-10T07:50:13.722Z,6.80
2019-03-10T07:52:43.800Z,6.80
2019-03-10T07:55:31.974Z,6.80
2019-03-10T07:58:07.866Z,6.70
2019-03-10T08:00:37.948Z,6.70
2019-03-10T08:03:23.751Z,6.70
2019-03-10T08:06:09.841Z,6.60
2019-03-10T08:08:42.690Z,6.50
2019-03-10T08:11:12.766Z,6.40
2019-03-10T08:13:48.815Z,6.50
2019-03-10T08:16:18.878Z,6.50
2019-03-10T08:19:05.093Z,6.60
2019-03-10T08:21:51.026Z,6.50
2019-03-10T08:24:26.555Z,6.50
2019-03-10T08:27:08.097Z,6.60
2019-03-10T08:29:40.649Z,6.60
2019-03-10T08:32:22.428Z,6.60
2019-03-10T08:35:10.115Z,6.50
2019-03-10T08:37:51.959Z,6.50
2019-03-10T08:40:22.055Z,6.50
2019-03-10T08:43:01.071Z,6.50
2019-03-10T08:45:33.857Z,6.40
2019-03-10T08:48:03.939Z,6.40
2019-03-10T08:50:34.001Z,6.50
2019-03-10T08:53:04.090Z,6.30
2019-03-10T08:55:39.985Z,6.30
2019-03-10T08:58:25.937Z,6.40
2019-03-10T09:01:01.725Z,6.30
2019-03-10T09:03:37.771Z,6.40
2019-03-10T09:06:07.880Z,6.40
2019-03-10T09:08:49.813Z,6.30
2019-03-10T09:11:34.967Z,6.40
2019-03-10T09:14:13.645Z,6.40
2019-03-10T09:16:46.707Z,6.30
2019-03-10T09:19:34.637Z,6.30
2019-03-10T09:22:04.780Z,6.30
2019-03-10T09:24:34.887Z,6.30
2019-03-10T09:27:21.106Z,6.30
2019-03-10T09:29:51.214Z,6.10
2019-03-10T09:32:21.368Z,6.20
2019-03-10T09:34:54.489Z,6.20
2019-03-10T09:37:30.430Z,6.30
2019-03-10T09:40:03.275Z,6.40
2019-03-10T09:42:49.114Z,6.50
2019-03-10T09:45:19.270Z,6.50
2019-03-10T09:47:49.343Z,6.40
2019-03-10T09:50:22.129Z,6.40
2019-03-10T09:52:54.884Z,6.40
2019-03-10T09:55:33.785Z,6.50
2019-03-10T09:58:12.388Z,6.50
2019-03-10T10:00:47.922Z,6.40
2019-03-10T10:03:23.723Z,6.50
2019-03-10T10:05:53.869Z,6.50
2019-03-10T10:08:23.984Z,6.80
2019-03-10T10:10:56.754Z,6.80
2019-03-10T10:13:32.539Z,6.80
2019-03-10T10:16:05.096Z,6.80
2019-03-10T10:18:40.758Z,6.90
2019-03-10T10:21:10.859Z,6.80
2019-03-10T10:23:43.590Z,7.00
2019-03-10T10:26:19.247Z,6.90
2019-03-10T10:28:51.741Z,6.90
2019-03-10T10:31:36.941Z,6.90
2019-03-10T10:34:07.023Z,6.70
2019-03-10T10:36:53.003Z,6.70
2019-03-10T10:39:25.929Z,6.80
2019-03-10T10:41:56.060Z,6.80
2019-03-10T10:44:26.160Z,6.90
2019-03-10T10:46:59.267Z,6.80
2019-03-10T10:49:32.125Z,7.00
2019-03-10T10:52:07.959Z,7.20
2019-03-10T10:54:43.566Z,7.10
2019-03-10T10:57:19.229Z,7.00
2019-03-10T11:00:07.126Z,6.90
2019-03-10T11:02:37.267Z,6.90
2019-03-10T11:05:17.523Z,6.80
2019-03-10T11:07:50.560Z,7.10
2019-03-10T11:10:29.449Z,7.00
2019-03-10T11:13:17.348Z,6.90
2019-03-10T11:15:59.385Z,7.00
2019-03-10T11:18:32.362Z,7.00
2019-03-10T11:21:05.252Z,7.10
2019-03-10T11:23:37.836Z,6.80
2019-03-10T11:26:16.730Z,7.10
2019-03-10T11:28:52.736Z,7.30
2019-03-10T11:31:22.854Z,7.20
2019-03-10T11:33:58.578Z,7.00
2019-03-10T11:36:28.739Z,7.20
2019-03-10T11:39:04.588Z,7.30
2019-03-10T11:41:50.941Z,7.40
2019-03-10T11:44:21.024Z,7.50
2019-03-10T11:46:59.951Z,7.40
2019-03-10T11:49:35.576Z,7.40
2019-03-10T11:52:05.801Z,7.30
2019-03-10T11:54:41.626Z,7.30
2019-03-10T11:57:29.846Z,7.10
2019-03-10T11:59:59.907Z,7.10
2019-03-10T12:02:33.066Z,7.20
2019-03-10T12:05:19.160Z,7.10
2019-03-10T12:07:52.004Z,7.10
2019-03-10T12:10:21.613Z,7.20
2019-03-10T12:12:50.150Z,6.90
2019-03-10T12:15:18.672Z,7.10
2019-03-10T12:17:47.107Z,7.30
2019-03-10T12:20:15.563Z,7.20
2019-03-10T12:22:44.028Z,7.40
2019-03-10T12:25:13.711Z,7.50
2019-03-10T12:27:42.161Z,7.20
2019-03-10T12:30:16.834Z,7.50
2019-03-10T12:32:45.336Z,7.60
2019-03-10T12:35:13.923Z,7.50
2019-03-10T12:37:42.363Z,7.50
2019-03-10T12:40:12.029Z,7.40
2019-03-10T12:42:40.482Z,7.50
2019-03-10T12:45:10.590Z,7.50
2019-03-10T12:47:39.049Z,7.70
2019-03-10T12:50:10.873Z,8.10
2019-03-10T12:52:39.341Z,8.20
2019-03-10T12:55:09.339Z,8.20
2019-03-10T12:57:37.813Z,8.00
2019-03-10T13:00:09.339Z,8.10
2019-03-10T13:02:38.795Z,8.20
2019-03-10T13:05:09.101Z,8.40
2019-03-10T13:07:37.675Z,8.70
2019-03-10T13:10:06.119Z,8.80
2019-03-10T13:12:34.658Z,9.00
2019-03-10T13:15:03.174Z,9.00
2019-03-10T13:17:31.735Z,8.80
2019-03-10T13:20:00.281Z,8.60
2019-03-10T13:22:28.820Z,8.40
2019-03-10T13:24:57.247Z,8.20
2019-03-10T13:27:25.714Z,8.30
2019-03-10T13:29:54.150Z,8.10
2019-03-10T13:32:22.602Z,8.20
2019-03-10T13:34:51.114Z,8.20
2019-03-10T13:37:19.584Z,8.10
2019-03-10T13:39:48.034Z,8.20
2019-03-10T13:42:16.518Z,8.20
2019-03-10T13:44:44.961Z,8.30
2019-03-10T13:47:13.491Z,8.40
2019-03-10T13:49:41.944Z,8.70
2019-03-10T13:52:10.482Z,9.00
2019-03-10T13:54:39.038Z,9.50
2019-03-10T13:57:07.502Z,9.50
2019-03-10T13:59:35.938Z,9.70
2019-03-10T14:02:04.469Z,9.90
2019-03-10T14:04:32.895Z,10.20
2019-03-10T14:07:01.526Z,10.40
2019-03-10T14:09:29.975Z,10.70
2019-03-10T14:11:58.444Z,10.80
2019-03-10T14:14:26.900Z,10.70
2019-03-10T14:16:55.419Z,10.40
2019-03-10T14:19:23.854Z,10.30
2019-03-10T14:21:52.345Z,10.20
2019-03-10T14:24:20.835Z,9.90
2019-03-10T14:26:49.299Z,9.80
2019-03-10T14:29:17.739Z,9.90
2019-03-10T14:31:46.165Z,9.90
2019-03-10T14:34:14.632Z,9.80
2019-03-10T14:36:43.154Z,9.70
2019-03-10T14:39:11.762Z,9.60
2019-03-10T14:41:40.212Z,9.60
2019-03-10T14:44:08.673Z,9.80
2019-03-10T14:46:37.143Z,9.60
2019-03-10T14:49:05.663Z,9.70
2019-03-10T14:51:34.115Z,9.70
2019-03-10T14:54:02.571Z,10.20
2019-03-10T14:56:31.016Z,10.90
2019-03-10T14:58:59.472Z,11.10
2019-03-10T15:01:28.066Z,10.80
2019-03-10T15:03:56.530Z,10.40
2019-03-10T15:06:26.150Z,10.30
2019-03-10T15:08:54.719Z,10.30
2019-03-10T15:11:23.169Z,10.40
2019-03-10T15:13:51.622Z,10.40
2019-03-10T15:16:20.089Z,10.40
2019-03-10T15:18:48.539Z,10.50
2019-03-10T15:21:16.982Z,10.50
2019-03-10T15:23:45.450Z,10.50
2019-03-10T15:26:13.967Z,10.40
2019-03-10T15:28:42.432Z,10.30
2019-03-10T15:31:10.954Z,10.40
2019-03-10T15:33:39.435Z,10.30
2019-03-10T15:36:07.948Z,10.20
2019-03-10T15:38:36.406Z,10.20
2019-03-10T15:41:04.860Z,10.20
2019-03-10T15:43:33.311Z,10.30
2019-03-10T15:46:01.766Z,10.40
2019-03-10T15:48:30.239Z,10.50
2019-03-10T15:50:58.686Z,10.50
2019-03-10T15:53:27.160Z,10.50
2019-03-10T15:55:55.585Z,10.60
2019-03-10T15:58:24.046Z,10.70
2019-03-10T16:00:52.565Z,10.70
2019-03-10T16:03:21.036Z,10.70
2019-03-10T16:05:50.611Z,10.70
2019-03-10T16:08:19.061Z,10.70
2019-03-10T16:10:47.709Z,10.70
2019-03-10T16:13:16.207Z,10.80
2019-03-10T16:15:44.672Z,10.70
2019-03-10T16:18:13.131Z,10.70
2019-03-10T16:20:41.618Z,10.60
2019-03-10T16:23:10.129Z,10.60
2019-03-10T16:25:38.592Z,10.30
2019-03-10T16:28:07.101Z,10.20
2019-03-10T16:30:35.558Z,10.10
2019-03-10T16:33:04.073Z,10.20
2019-03-10T16:35:32.539Z,10.20
2019-03-10T16:38:01.015Z,10.10
2019-03-10T16:40:29.631Z,10.10
2019-03-10T16:42:58.245Z,10.10
2019-03-10T16:45:27.879Z,10.00
2019-03-10T16:47:57.617Z,10.00
2019-03-10T16:50:28.379Z,10.10
2019-03-10T16:52:56.916Z,10.10
2019-03-10T16:55:25.572Z,10.10
2019-03-10T16:57:54.202Z,10.10
2019-03-10T17:00:22.683Z,10.10
2019-03-10T17:02:51.897Z,10.10
2019-03-10T17:05:22.545Z,10.10
2019-03-10T17:07:51.327Z,10.10
2019-03-10T17:10:22.115Z,10.00
2019-03-10T17:12:50.708Z,10.00
2019-03-10T17:15:23.467Z,10.00
2019-03-10T17:17:51.906Z,10.00
2019-03-10T17:20:20.599Z,9.90
2019-03-10T17:22:49.236Z,10.00
2019-03-10T17:25:18.022Z,9.90
2019-03-10T17:27:46.485Z,9.90
2019-03-10T17:30:24.824Z,9.80
2019-03-10T17:32:53.384Z,9.80
2019-03-10T17:35:22.257Z,9.80
2019-03-10T17:37:50.864Z,9.80
2019-03-10T17:40:21.530Z,9.90
2019-03-10T17:42:50.230Z,10.00
2019-03-10T17:45:23.229Z,10.20
2019-03-10T17:47:51.778Z,10.20
2019-03-10T17:50:20.428Z,10.20
2019-03-10T17:52:49.638Z,10.10
2019-03-10T17:55:20.251Z,10.10
2019-03-10T17:57:48.791Z,10.10
2019-03-10T18:00:19.937Z,10.10
2019-03-10T18:02:48.467Z,10.10
2019-03-10T18:05:16.979Z,10.10
2019-03-10T18:07:45.522Z,10.10
2019-03-10T18:10:16.151Z,10.20
2019-03-10T18:12:44.678Z,10.20
2019-03-10T18:15:14.695Z,10.20
2019-03-10T18:17:43.198Z,10.20
2019-03-10T18:20:16.887Z,10.20
2019-03-10T18:22:45.840Z,10.10
2019-03-10T18:25:15.361Z,10.10
2019-03-10T18:27:43.880Z,10.00
2019-03-10T18:30:23.375Z,9.90
2019-03-10T18:32:51.885Z,10.00
2019-03-10T18:35:20.393Z,10.00
2019-03-10T18:37:48.931Z,10.00
2019-03-10T18:40:28.212Z,9.80
2019-03-10T18:42:56.676Z,9.70
2019-03-10T18:45:25.115Z,9.70
2019-03-10T18:47:53.782Z,9.60
2019-03-10T18:50:25.996Z,9.50
2019-03-10T18:52:54.565Z,9.50
2019-03-10T18:55:23.451Z,9.50
2019-03-10T18:57:52.125Z,9.60
2019-03-10T19:00:28.309Z,9.50
2019-03-10T19:02:56.839Z,9.50
2019-03-10T19:05:25.368Z,9.50
2019-03-10T19:07:53.927Z,9.50
2019-03-10T19:10:22.584Z,9.40
2019-03-10T19:12:51.187Z,9.40
2019-03-10T19:15:21.744Z,9.40
2019-03-10T19:17:50.282Z,9.40
2019-03-10T19:20:18.855Z,9.40
2019-03-10T19:22:47.712Z,9.40
2019-03-10T19:25:16.945Z,9.30
2019-03-10T19:27:46.907Z,9.30
2019-03-10T19:30:20.210Z,9.20
2019-03-10T19:32:49.152Z,9.20
2019-03-10T19:35:17.823Z,9.20
2019-03-10T19:37:46.337Z,9.20
2019-03-10T19:40:17.085Z,9.10
2019-03-10T19:42:45.679Z,9.10
2019-03-10T19:45:16.745Z,9.10
2019-03-10T19:47:45.454Z,9.00
2019-03-10T19:50:16.457Z,8.90
2019-03-10T19:52:45.164Z,8.70
2019-03-10T19:55:15.191Z,8.40
2019-03-10T19:57:43.891Z,8.20
2019-03-10T20:00:14.989Z,7.70
2019-03-10T20:02:43.641Z,6.80
2019-03-10T20:05:12.706Z,5.80
2019-03-10T20:07:41.249Z,5.20
2019-03-10T20:10:23.511Z,4.80
2019-03-10T20:12:52.079Z,4.30
2019-03-10T20:15:24.530Z,4.00
2019-03-10T20:17:53.032Z,3.80
2019-03-10T20:20:29.399Z,3.70
2019-03-10T20:22:57.829Z,3.60
2019-03-10T20:25:26.309Z,3.50
2019-03-10T20:27:54.737Z,3.40
2019-03-10T20:30:24.130Z,3.30
2019-03-10T20:32:52.606Z,3.30
2019-03-10T20:35:21.235Z,3.20
2019-03-10T20:37:49.774Z,3.20
2019-03-10T20:40:20.321Z,3.20
2019-03-10T20:42:48.909Z,3.20
2019-03-10T20:45:17.540Z,3.20
2019-03-10T20:47:46.090Z,3.20
2019-03-10T20:50:16.811Z,3.20
2019-03-10T20:52:45.704Z,3.20
2019-03-10T20:55:15.013Z,3.20
2019-03-10T20:57:44.039Z,3.20
2019-03-10T21:00:23.400Z,3.30
2019-03-10T21:02:51.900Z,3.40
2019-03-10T21:05:20.345Z,3.50
2019-03-10T21:07:48.817Z,3.40
2019-03-10T21:10:22.106Z,3.40
2019-03-10T21:12:50.707Z,3.50
2019-03-10T21:15:20.342Z,3.50
2019-03-10T21:17:48.936Z,3.50
2019-03-10T21:20:18.513Z,3.50
2019-03-10T21:22:47.256Z,3.50
2019-03-10T21:25:17.854Z,3.60
2019-03-10T21:27:46.647Z,3.50
2019-03-10T21:30:17.866Z,3.60
2019-03-10T21:32:46.818Z,3.60
2019-03-10T21:35:17.870Z,3.50
2019-03-10T21:37:45.501Z,3.60
2019-03-10T21:40:19.024Z,3.60
2019-03-10T21:42:47.480Z,3.50
2019-03-10T21:45:16.350Z,3.70
2019-03-10T21:47:44.821Z,3.70
2019-03-10T21:50:17.706Z,3.80
2019-03-10T21:52:46.482Z,3.70
2019-03-10T21:55:16.000Z,3.60
2019-03-10T21:57:44.696Z,3.70
2019-03-10T22:00:18.104Z,3.70
2019-03-10T22:02:46.790Z,3.80
2019-03-10T22:05:16.086Z,3.80
2019-03-10T22:07:44.768Z,3.80
2019-03-10T22:10:26.873Z,3.80
2019-03-10T22:12:49.251Z,3.70
2019-03-10T22:15:21.111Z,3.70
2019-03-10T22:17:49.581Z,3.90
2019-03-10T22:20:18.755Z,3.90
2019-03-10T22:22:49.829Z,3.80
2019-03-10T22:25:17.677Z,3.70
2019-03-10T22:27:46.571Z,3.70
2019-03-10T22:30:17.839Z,3.80
2019-03-10T22:32:46.407Z,3.80
2019-03-10T22:35:15.003Z,3.90
2019-03-10T22:37:43.506Z,3.90
2019-03-10T22:40:16.096Z,3.70
2019-03-10T22:42:44.675Z,3.70
2019-03-10T22:45:16.256Z,3.60
2019-03-10T22:47:44.718Z,3.60
2019-03-10T22:50:17.679Z,3.70
2019-03-10T22:52:46.766Z,3.80
2019-03-10T22:55:15.941Z,3.70
2019-03-10T22:57:44.736Z,3.70
2019-03-10T23:00:18.059Z,3.80
2019-03-10T23:02:46.570Z,3.60
2019-03-10T23:05:15.083Z,3.70
2019-03-10T23:07:43.566Z,3.60
2019-03-10T23:10:13.685Z,3.50
2019-03-10T23:12:42.101Z,3.70
2019-03-10T23:15:14.159Z,3.60
2019-03-10T23:17:42.754Z,3.70
2019-03-10T23:20:17.785Z,3.70
2019-03-10T23:22:46.249Z,3.80
2019-03-10T23:25:14.805Z,3.70
2019-03-10T23:27:43.409Z,3.70
2019-03-10T23:30:16.933Z,3.70
2019-03-10T23:32:45.452Z,3.90
2019-03-10T23:35:14.066Z,3.90
2019-03-10T23:37:42.503Z,3.90
2019-03-10T23:40:20.502Z,3.80
2019-03-10T23:42:48.936Z,3.80
2019-03-10T23:45:18.230Z,3.80
2019-03-10T23:47:46.908Z,3.80
2019-03-10T23:50:16.862Z,3.90
2019-03-10T23:52:45.295Z,3.80
2019-03-10T23:55:14.387Z,3.80
2019-03-10T23:57:42.916Z,3.80
